Flight Track Log - Related Links

Times and Time Zones

All times are in EDT time to prevent confusion due to time zone crossing. See the EMD28 flight status page for this flight to view local times or setup timezone preferences in your user account.

Time Position Orientation Groundspeed Altitude Reporting Facility
EDT Latitude Longitude Course Direction KTS MPH feet Rate Location/Type
Wed 06:12:59 PM 37.6425 -97.4275 172° South 130 150 1,600  Level Kansas City Center
Wed 06:14:00 PM 37.6106 -97.4219 172° South 143 165 2,800 1,254 Climbing Kansas City Center
Wed 06:14:06 PM 37.6108 -97.4183 84° East 156 180 3,000 1,300 Climbing Kansas City Center
Wed 06:15:00 PM 37.5956 -97.3767 115° Southeast 144 166 4,100 1,161 Climbing Kansas City Center
Wed 06:15:08 PM 37.5964 -97.3725 76° East 146 168 4,200 1,164 Climbing Kansas City Center
Wed 06:16:07 PM 37.5739 -97.3272 122° Southeast 144 166 5,400 1,161 Climbing Kansas City Center
Wed 06:16:10 PM 37.5756 -97.3294 313° West 145 167 5,400 1,102 Level Kansas City Center
Wed 06:16:56 PM 37.5575 -97.2900 120° Southeast 149 171 6,300 1,065 Climbing Kansas City Center
Wed 06:17:12 PM 37.5556 -97.2836 111° Southeast 146 168 6,500 1,279 Climbing Kansas City Center
Wed 06:17:57 PM 37.5400 -97.2400 114° Southeast 152 175 7,600 1,258 Climbing Kansas City Center
Wed 06:18:14 PM 37.5383 -97.2342 110° East 152 175 7,800 684 Climbing Kansas City Center
Wed 06:19:16 PM 37.5164 -97.1842 119° Southeast 158 182 8,500 823 Climbing Kansas City Center
Wed 06:20:18 PM 37.4897 -97.1172 117° Southeast 178 205 9,500 919 Climbing Kansas City Center
Wed 06:21:20 PM 37.4653 -97.0581 117° Southeast 189 217 10,400 768 Climbing Kansas City Center
Wed 06:22:23 PM 37.4389 -96.9964 118° Southeast 196 226 11,100 768 Climbing Kansas City Center
Wed 06:23:25 PM 37.4144 -96.9306 115° Southeast 206 237 12,000 919 Climbing Kansas City Center
Wed 06:24:27 PM 37.3875 -96.8742 121° Southeast 193 222 13,000 871 Climbing Kansas City Center
Wed 06:25:29 PM 37.3686 -96.8142 112° Southeast 186 214 13,800 726 Climbing Kansas City Center
Wed 06:26:31 PM 37.3667 -96.7300 92° East 194 223 14,500 823 Climbing Kansas City Center
Wed 06:27:33 PM 37.3653 -96.6606 91° East 199 229 15,500 871 Climbing Kansas City Center
Wed 06:28:35 PM 37.3536 -96.5981 103° East 190 219 16,300 629 Climbing Kansas City Center
Wed 06:29:37 PM 37.3386 -96.5339 106° East 190 219 16,800 532 Climbing Kansas City Center
Wed 06:30:39 PM 37.3356 -96.4617 93° East 199 229 17,400 774 Climbing Kansas City Center
Wed 06:31:41 PM 37.3303 -96.3758 94° East 207 238 18,400 774 Climbing Kansas City Center
Wed 06:32:43 PM 37.3164 -96.3097 105° East 202 232 19,000 581 Climbing Kansas City Center
Wed 06:33:45 PM 37.3047 -96.2417 102° East 199 229 19,600 581 Climbing Kansas City Center
Wed 06:34:47 PM 37.3028 -96.1678 92° East 205 236 20,200 629 Climbing Kansas City Center
Wed 06:35:49 PM 37.2956 -96.0992 98° East 204 235 20,900 387 Climbing Kansas City Center
Wed 06:36:51 PM 37.2811 -96.0311 105° East 203 234 21,000 48 Climbing Kansas City Center
Wed 06:37:53 PM 37.2700 -95.9364 98° East 212 244 21,000  Level Kansas City Center
Wed 06:38:55 PM 37.2639 -95.8497 95° East 227 261 21,000  Level Kansas City Center
Wed 06:39:57 PM 37.2508 -95.7633 101° East 240 276 21,000  Level Kansas City Center
Wed 06:40:59 PM 37.2381 -95.6783 101° East 245 282 21,000  Level Kansas City Center
Wed 06:42:02 PM 37.2283 -95.5919 98° East 247 284 21,000  Level Kansas City Center
Wed 06:43:04 PM 37.2194 -95.5064 97° East 248 285 21,000  Level Kansas City Center
Wed 06:44:06 PM 37.2064 -95.4219 101° East 246 283 21,000  Level Kansas City Center
Wed 06:45:08 PM 37.1931 -95.3181 99° East 249 287 21,000  Level Kansas City Center
Wed 06:46:10 PM 37.1833 -95.2311 98° East 250 288 21,000  Level Kansas City Center
Wed 06:47:12 PM 37.1714 -95.1453 100° East 250 288 21,000  Level Kansas City Center
Wed 06:48:14 PM 37.1592 -95.0575 100° East 252 290 21,000  Level Kansas City Center
Wed 06:49:16 PM 37.1489 -94.9717 99° East 250 288 21,000  Level Kansas City Center
Wed 06:50:18 PM 37.1367 -94.8864 100° East 249 287 21,000  Level Kansas City Center
Wed 06:51:20 PM 37.1253 -94.7989 99° East 251 289 21,000  Level Kansas City Center
Wed 06:52:22 PM 37.1122 -94.6964 99° East 249 287 21,000  Level Kansas City Center
Wed 06:53:24 PM 37.1000 -94.6108 100° East 249 287 21,000  Level Kansas City Center
Wed 06:54:26 PM 37.0889 -94.5244 99° East 250 288 21,000  Level Kansas City Center
Wed 06:55:28 PM 37.0761 -94.4381 100° East 251 289 21,000  Level Kansas City Center
Wed 06:56:30 PM 37.0650 -94.3517 99° East 251 289 21,000  Level Kansas City Center
Wed 06:57:32 PM 37.0531 -94.2650 100° East 251 289 21,000  Level Kansas City Center
Wed 06:58:34 PM 37.0406 -94.1803 100° East 249 287 21,000  Level Kansas City Center
Wed 06:59:36 PM 37.0267 -94.0775 100° East 249 287 21,000  Level Kansas City Center
Wed 07:00:39 PM 37.0147 -93.9914 100° East 250 288 21,000  Level Kansas City Center
Wed 07:01:40 PM 37.0031 -93.9047 100° East 251 289 21,000  Level Kansas City Center
Wed 07:02:42 PM 36.9892 -93.8189 101° East 252 290 21,000  Level Kansas City Center
Wed 07:03:45 PM 36.9769 -93.7244 99° East 250 288 21,000  Level Kansas City Center
Wed 07:04:47 PM 36.9636 -93.6389 101° East 250 288 21,000  Level Kansas City Center
Wed 07:05:49 PM 36.9525 -93.5547 99° East 248 285 21,000  Level Kansas City Center
Wed 07:06:51 PM 36.9400 -93.4706 101° East 247 284 21,000  Level Kansas City Center
Wed 07:07:53 PM 36.9267 -93.3839 101° East 251 289 21,000  Level Kansas City Center
Wed 07:08:55 PM 36.9144 -93.2981 100° East 251 289 21,000  Level Kansas City Center
Wed 07:09:57 PM 36.8986 -93.1972 101° East 249 287 21,000  Level Kansas City Center
Wed 07:10:59 PM 36.8864 -93.1122 100° East 248 285 21,000  Level Kansas City Center
Wed 07:12:01 PM 36.8742 -93.0275 100° East 249 287 21,000  Level Kansas City Center
Wed 07:13:03 PM 36.8614 -92.9439 101° East 247 284 21,000  Level Kansas City Center
Wed 07:14:05 PM 36.8483 -92.8597 101° East 247 284 21,000  Level Kansas City Center
Wed 07:15:07 PM 36.8358 -92.7736 100° East 249 287 21,000  Level Kansas City Center
Wed 07:16:09 PM 36.8206 -92.6728 101° East 249 287 21,000  Level Kansas City Center
Wed 07:17:11 PM 36.8069 -92.5886 101° East 248 285 21,000  Level Kansas City Center
Wed 07:18:13 PM 36.7944 -92.5019 100° East 250 288 21,000  Level Kansas City Center
Wed 07:19:15 PM 36.7814 -92.4175 101° East 250 288 21,000  Level Kansas City Center
Wed 07:20:17 PM 36.7686 -92.3336 101° East 248 285 21,000  Level Kansas City Center
Wed 07:21:19 PM 36.7553 -92.2494 101° East 249 287 21,000  Level Kansas City Center
Wed 07:22:21 PM 36.7419 -92.1642 101° East 249 287 21,000  Level Kansas City Center
Wed 07:23:23 PM 36.7256 -92.0611 101° East 251 289 21,000  Level Kansas City Center
Wed 07:24:25 PM 36.7122 -91.9772 101° East 249 287 21,000  Level Kansas City Center
Wed 07:25:27 PM 36.6978 -91.8903 102° East 254 292 21,000  Level Kansas City Center
Wed 07:27:15 PM 36.6722 -91.7411 102° East 244 281 21,000  Level Memphis Center
Wed 07:28:15 PM 36.6583 -91.6581 102° East 244 281 21,000  Level Memphis Center
Wed 07:29:15 PM 36.6428 -91.5647 102° East 244 281 21,000  Level Memphis Center
Wed 07:30:15 PM 36.6311 -91.4792 100° East 239 275 21,000  Level Memphis Center
Wed 07:31:15 PM 36.6150 -91.3936 103° East 239 275 21,000  Level Memphis Center
Wed 07:32:15 PM 36.6033 -91.3081 100° East 239 275 21,000  Level Memphis Center
Wed 07:33:15 PM 36.5872 -91.2200 103° East 244 281 21,000  Level Memphis Center
Wed 07:34:15 PM 36.5711 -91.1397 104° East 239 275 21,000  Level Memphis Center
Wed 07:35:15 PM 36.5611 -91.0622 99° East 239 275 21,000  Level Memphis Center
Wed 07:36:15 PM 36.5489 -90.9794 100° East 239 275 21,000  Level Memphis Center
Wed 07:37:15 PM 36.5328 -90.8914 103° East 239 275 21,000  Level Memphis Center
Wed 07:38:15 PM 36.5183 -90.8089 102° East 239 275 21,000  Level Memphis Center
Wed 07:39:15 PM 36.5000 -90.7208 104° East 239 275 21,000  Level Memphis Center
Wed 07:40:15 PM 36.4897 -90.6356 99° East 239 275 21,000  Level Memphis Center
Wed 07:41:15 PM 36.4733 -90.5531 104° East 239 275 21,000  Level Memphis Center
Wed 07:42:15 PM 36.4589 -90.4653 102° East 239 275 21,000  Level Memphis Center
Wed 07:43:15 PM 36.4422 -90.3775 103° East 244 281 21,000  Level Memphis Center
Wed 07:44:15 PM 36.4297 -90.2900 100° East 249 287 21,000  Level Memphis Center
Wed 07:45:15 PM 36.4128 -90.2022 103° East 254 292 21,000  Level Memphis Center
Wed 07:46:15 PM 36.3981 -90.1147 102° East 259 298 21,000  Level Memphis Center
Wed 07:47:15 PM 36.3811 -90.0269 103° East 259 298 21,000  Level Memphis Center
Wed 07:48:15 PM 36.3664 -89.9419 102° East 259 298 21,000  Level Memphis Center
Wed 07:49:15 PM 36.3514 -89.8544 102° East 259 298 21,000  Level Memphis Center
Wed 07:50:15 PM 36.3364 -89.7694 102° East 259 298 21,000  Level Memphis Center
Wed 07:51:15 PM 36.3194 -89.6822 104° East 259 298 21,000  Level Memphis Center
Wed 07:52:15 PM 36.3042 -89.5947 102° East 259 298 21,000  Level Memphis Center
Wed 07:53:15 PM 36.2869 -89.5072 104° East 259 298 21,000  Level Memphis Center
Wed 07:54:15 PM 36.2697 -89.4200 104° East 259 298 21,000  Level Memphis Center
Wed 07:55:15 PM 36.2544 -89.3300 102° East 259 298 21,000  Level Memphis Center
Wed 07:56:15 PM 36.2411 -89.2453 101° East 259 298 21,000  Level Memphis Center
Wed 07:57:15 PM 36.2214 -89.1453 104° East 259 298 21,000  Level Memphis Center
Wed 07:58:15 PM 36.2081 -89.0606 101° East 259 298 21,000  Level Memphis Center
Wed 07:59:15 PM 36.1925 -88.9733 102° East 259 298 21,000  Level Memphis Center
Wed 08:00:15 PM 36.1769 -88.8861 102° East 259 298 21,000  Level Memphis Center
Wed 08:01:15 PM 36.1697 -88.7989 96° East 259 298 21,000  Level Memphis Center
Wed 08:02:15 PM 36.1622 -88.7117 96° East 259 298 21,000  Level Memphis Center
Wed 08:03:15 PM 36.1528 -88.6244 98° East 254 292 21,000  Level Memphis Center
Wed 08:04:16 PM 36.1431 -88.5372 98° East 254 292 21,000  Level Memphis Center
Wed 08:05:15 PM 36.1356 -88.4475 96° East 254 292 21,000  Level Memphis Center
Wed 08:06:15 PM 36.1236 -88.3603 100° East 254 292 21,000  Level Memphis Center
Wed 08:07:15 PM 36.1036 -88.2736 106° East 254 292 21,000  Level Memphis Center
Wed 08:08:15 PM 36.0894 -88.1892 102° East 259 298 21,000  Level Memphis Center
Wed 08:09:15 PM 36.0714 -88.0997 104° East 259 298 21,000  Level Memphis Center
Wed 08:10:15 PM 36.0508 -88.0156 107° East 259 298 21,000  Level Memphis Center
Wed 08:11:15 PM 36.0303 -87.9239 105° East 265 305 21,000  Level Memphis Center
Wed 08:12:15 PM 36.0161 -87.8394 102° East 260 299 21,000  Level Memphis Center
Wed 08:13:15 PM 35.9978 -87.7528 105° East 260 299 21,000  Level Memphis Center
Wed 08:14:15 PM 35.9792 -87.6661 105° East 260 299 21,000  Level Memphis Center
Wed 08:15:15 PM 35.9628 -87.5769 103° East 260 299 21,000  Level Memphis Center
Wed 08:16:15 PM 35.9461 -87.4931 104° East 260 299 21,000  Level Memphis Center
Wed 08:17:15 PM 35.9275 -87.4039 104° East 260 299 21,000  Level Memphis Center
Wed 08:18:15 PM 35.9108 -87.3275 105° East 260 299 21,000  Level Memphis Center
Wed 08:19:15 PM 35.8922 -87.2411 105° East 260 299 21,000  Level Memphis Center
Wed 08:20:15 PM 35.8753 -87.1547 104° East 260 299 21,000  Level Memphis Center
Wed 08:21:15 PM 35.8564 -87.0683 105° East 260 299 21,000  Level Memphis Center
Wed 08:22:15 PM 35.8372 -86.9794 105° East 260 299 21,000  Level Memphis Center
Wed 08:23:15 PM 35.8203 -86.8958 104° East 260 299 21,000  Level Memphis Center
Wed 08:24:15 PM 35.8014 -86.8094 105° East 260 299 21,000  Level Memphis Center
Wed 08:25:15 PM 35.7842 -86.7258 104° East 260 299 21,000  Level Memphis Center
Wed 08:26:15 PM 35.7672 -86.6397 104° East 260 299 21,000  Level Memphis Center
Wed 08:27:15 PM 35.7456 -86.5486 106° East 260 299 21,000  Level Memphis Center
Wed 08:28:15 PM 35.7283 -86.4622 104° East 260 299 21,000  Level Memphis Center
Wed 08:29:15 PM 35.7089 -86.3739 105° East 260 299 21,000  Level Memphis Center
Wed 08:30:15 PM 35.6894 -86.2903 106° East 260 299 21,000  Level Memphis Center
Wed 08:31:15 PM 35.6719 -86.2044 104° East 260 299 21,000  Level Memphis Center
Wed 08:32:15 PM 35.6544 -86.1158 104° East 260 299 21,000  Level Memphis Center
Wed 08:33:15 PM 35.6347 -86.0300 106° East 260 299 21,000  Level Memphis Center
Wed 08:34:15 PM 35.6150 -85.9467 106° East 260 299 21,000  Level Memphis Center
Wed 08:35:15 PM 35.5933 -85.8611 107° East 260 299 21,000  Level Memphis Center
Wed 08:36:15 PM 35.5756 -85.7728 104° East 260 299 21,000  Level Memphis Center
Wed 08:37:15 PM 35.5556 -85.6869 106° East 260 299 21,000  Level Memphis Center
Wed 08:39:19 PM 35.5156 -85.5108 106° East 264 304 21,000  Level Atlanta Center
Wed 08:40:19 PM 35.4978 -85.4239 104° East 264 304 21,000  Level Atlanta Center
Wed 08:41:19 PM 35.4756 -85.3394 108° East 264 304 21,000  Level Atlanta Center
Wed 08:42:19 PM 35.4558 -85.2522 105° East 264 304 21,000  Level Atlanta Center
Wed 08:43:19 PM 35.4378 -85.1653 104° East 264 304 21,000  Level Atlanta Center
Wed 08:44:19 PM 35.4175 -85.0811 106° East 264 304 21,000  Level Atlanta Center
Wed 08:45:19 PM 35.3975 -84.9942 106° East 264 304 21,000  Level Atlanta Center
Wed 08:46:19 PM 35.3772 -84.9100 106° East 264 304 21,000  Level Atlanta Center
Wed 08:47:19 PM 35.3569 -84.8256 106° East 264 304 21,000  Level Atlanta Center
Wed 08:48:19 PM 35.3367 -84.7414 106° East 264 304 21,000  Level Atlanta Center
Wed 08:49:19 PM 35.3183 -84.6572 105° East 264 304 21,000  Level Atlanta Center
Wed 08:50:19 PM 35.2978 -84.5731 107° East 264 304 21,000  Level Atlanta Center
Wed 08:51:19 PM 35.2794 -84.4892 105° East 264 304 21,000  Level Atlanta Center
Wed 08:52:19 PM 35.2586 -84.4075 107° East 264 304 21,000  Level Atlanta Center
Wed 08:53:19 PM 35.2381 -84.3236 107° East 264 304 21,000  Level Atlanta Center
Wed 08:54:19 PM 35.2194 -84.2397 105° East 264 304 21,000  Level Atlanta Center
Wed 08:55:19 PM 35.1986 -84.1556 107° East 264 304 21,000  Level Atlanta Center
Wed 08:56:19 PM 35.1778 -84.0719 107° East 264 304 21,000  Level Atlanta Center
Wed 08:57:19 PM 35.1592 -83.9881 105° East 264 304 21,000 -300 Level Atlanta Center
Wed 08:58:19 PM 35.1381 -83.8992 106° East 264 304 20,400 -800 Descending Atlanta Center
Wed 08:59:19 PM 35.1131 -83.8053 108° East 274 315 19,400 -1,050 Descending Atlanta Center
Wed 09:00:19 PM 35.0939 -83.7114 104° East 280 322 18,300 -1,150 Descending Atlanta Center
Wed 09:01:19 PM 35.0728 -83.6150 105° East 285 328 17,100 -1,150 Descending Atlanta Center
Wed 09:02:19 PM 35.0453 -83.5264 111° Southeast 285 328 16,000 -1,150 Descending Atlanta Center
Wed 09:03:19 PM 35.0219 -83.4453 109° East 285 328 14,800 -1,050 Descending Atlanta Center
Wed 09:04:19 PM 35.0050 -83.3567 103° East 280 322 13,900 -750 Descending Atlanta Center
Wed 09:05:19 PM 34.9878 -83.2808 105° East 257 296 13,300 -600 Descending Atlanta Center
Wed 09:06:19 PM 34.9664 -83.2125 111° Southeast 234 269 12,700 -750 Descending Atlanta Center
Wed 09:07:19 PM 34.9472 -83.1392 108° East 220 253 11,800 -1,000 Descending Atlanta Center
Wed 09:08:19 PM 34.9319 -83.0633 104° East 220 253 10,700 -1,100 Descending Atlanta Center
Wed 09:09:19 PM 34.9106 -82.9900 110° East 230 265 9,600 -850 Descending Atlanta Center
Wed 09:10:19 PM 34.8953 -82.9194 105° East 224 258 9,000 -300 Descending Atlanta Center
Wed 09:11:19 PM 34.8781 -82.8564 108° East 211 243 9,000 -600 Level Atlanta Center
Wed 09:12:19 PM 34.8606 -82.7858 107° East 205 236 7,800 -1,350 Descending Atlanta Center
Wed 09:13:19 PM 34.8347 -82.7178 115° Southeast 210 242 6,300 -1,450 Descending Atlanta Center
Wed 09:14:19 PM 34.7925 -82.6706 137° Southeast 210 242 4,900 -1,450 Descending Atlanta Center
Wed 09:15:19 PM 34.7544 -82.6206 133° Southeast 210 242 3,400 -950 Descending Atlanta Center
Wed 09:16:19 PM 34.7372 -82.5653 111° Southeast 192 221 3,000 -250 Descending Atlanta Center
Wed 09:17:19 PM 34.7283 -82.5222 104° East 159 183 2,900 -100 Descending Atlanta Center
Wed 09:19:00 PM 34.7559 -82.3884 112° Southeast  Level Estimated
Wed 09:26:00 PM 34.7583 -82.3764 112° Southeast  Level Estimated
Wed 09:27:00 PM 34.7583 -82.3764 112° Southeast  Level Estimated
Wed 09:28:00 PM 34.7583 -82.3764 112° Southeast  Level Estimated
Wed 09:29:00 PM 34.7583 -82.3764 112° Southeast  Level Estimated

Login

Don't have an account? Register now (free) for customized features, flight alerts, and more!